• Join FlightAware (Why Join?)
  • Login
  • US Flag 
07:03AM EDT


 

Airport Tracker/Info


-or-


 

Live Flight TrackerFlight Track Log ✈ GJS3657 ✈ 23-Jul-2013 ✈ KORD - KPWM

Flight Track Log - Related Links

Times and Time Zones

All times are in EDT time to prevent confusion due to time zone crossing. See the GJS3657 flight status page for this flight to view local times or setup timezone preferences in your user account.

Time Position Orientation Groundspeed Altitude Reporting Facility
EDT Latitude Longitude Course Direction KTS MPH feet Rate Location/Type
11:09PM 42.0000 -87.9333 360° North 160 184 1,400  Level Chicago TRACON
11:10PM 42.0500 -87.9333 360° North 196 226 3,000 1,740 Climbing Chicago TRACON
11:11PM 42.1000 -87.9167 14° North 234 269 4,900 1,320 Climbing Chicago TRACON
11:12PM 42.1322 -87.9089 10° North 226 260 5,000 60 Climbing Chicago Center
11:13PM 42.1994 -87.8908 11° North 243 280 5,000 780 Level Chicago Center
11:14PM 42.2672 -87.8656 15° North 252 290 6,600 2,160 Climbing Chicago Center
11:15PM 42.3467 -87.8317 17° North 265 305 9,500 2,520 Climbing Chicago Center
11:16PM 42.4200 -87.7939 21° North 275 316 11,800 2,160 Climbing Chicago Center
11:17PM 42.4956 -87.7544 21° North 287 330 14,000 1,980 Climbing Chicago Center
11:18PM 42.5814 -87.7208 16° North 299 344 15,900 1,620 Climbing Chicago Center
11:19PM 42.6633 -87.6911 15° North 319 367 17,300 1,200 Climbing Chicago Center
11:20PM 42.7589 -87.6583 14° North 350 403 18,400 1,080 Climbing Chicago Center
11:21PM 42.8522 -87.5911 28° Northeast 396 456 19,500 1,140 Climbing Chicago Center
11:22PM 42.9397 -87.4542 49° Northeast 411 473 20,800 1,260 Climbing Chicago Center
11:23PM 43.0103 -87.3442 49° Northeast 420 483 22,100 1,320 Climbing Chicago Center
11:24PM 43.0883 -87.2211 49° Northeast 427 491 23,500 1,320 Climbing Chicago Center
11:25PM 43.1672 -87.0964 49° Northeast 431 496 24,900 1,260 Climbing Chicago Center
11:26PM 43.2439 -86.9733 49° Northeast 426 490 26,100 1,020 Climbing Chicago Center
11:27PM 43.3225 -86.8467 50° Northeast 432 497 27,100 960 Climbing Chicago Center
11:28PM 43.4033 -86.7169 49° Northeast 442 509 28,100 840 Climbing Chicago Center
11:29PM 43.5008 -86.5581 50° Northeast 450 518 28,900 660 Climbing Chicago Center
11:30PM 43.5853 -86.4228 49° Northeast 460 529 29,500 540 Climbing Chicago Center
11:31PM 43.6714 -86.2819 50° Northeast 475 547 30,000 480 Climbing Chicago Center
11:32PM 43.7564 -86.1403 50° Northeast 477 549 30,500 480 Climbing Chicago Center
11:33PM 43.8436 -85.9975 50° Northeast 484 557 31,000 240 Climbing Chicago Center
11:34PM 43.9214 -85.8669 50° Northeast 477 549 31,000  Level Chicago Center
11:35PM 44.0025 -85.7244 52° Northeast 473 544 31,000  Level Chicago Center
11:36PM 44.0497 -85.5131 73° East 482 555 31,000  Level Chicago Center
11:37PM 44.0864 -85.3294 74° East 492 566 31,000  Level Chicago Center
11:38PM 44.1228 -85.1456 75° East 495 570 31,000  Level Chicago Center
11:39PM 44.1581 -84.9631 75° East 493 567 31,000  Level Chicago Center
11:40PM 44.1933 -84.7822 75° East 487 560 31,000  Level Chicago Center
11:41PM 44.2289 -84.6000 75° East 490 564 31,000  Level Chicago Center
11:42PM 44.2667 -84.3333 79° East 500 575 31,000  Level Toronto Center
11:43PM 44.3000 -84.1500 76° East 500 575 31,000  Level Toronto Center
11:44PM 44.3333 -83.9667 76° East 500 575 31,000  Level Toronto Center
11:45PM 44.3500 -83.7833 83° East 500 575 31,000  Level Toronto Center
11:46PM 44.4000 -83.6000 69° East 490 564 31,000  Level Toronto Center
11:47PM 44.4333 -83.4167 76° East 490 564 31,000  Level Toronto Center
11:48PM 44.4333 -83.2333 90° East 500 575 31,000  Level Toronto Center
11:49PM 44.4000 -83.0167 102° East 510 587 31,000  Level Toronto Center
11:50PM 44.3833 -82.8333 97° East 510 587 31,000  Level Toronto Center
11:51PM 44.3667 -82.6167 96° East 510 587 31,000  Level Toronto Center
11:52PM 44.3500 -82.4333 97° East 500 575 31,000  Level Toronto Center
11:53PM 44.3333 -82.2500 97° East 500 575 31,000  Level Toronto Center
11:54PM 44.3000 -82.0500 103° East 500 575 31,000  Level Toronto Center
11:55PM 44.3000 -81.8667 90° East 510 587 31,000  Level Toronto Center
11:56PM 44.2833 -81.6667 97° East 510 587 31,000  Level Toronto Center
11:57PM 44.2667 -81.4667 97° East 500 575 31,000  Level Toronto Center
11:58PM 44.2333 -81.2667 103° East 500 575 31,000  Level Toronto Center
11:59PM 44.2167 -81.0833 97° East 510 587 31,000  Level Toronto Center
12:00AM 44.2000 -80.8833 97° East 510 587 31,000  Level Toronto Center
12:01AM 44.2000 -80.6833 90° East 510 587 31,000  Level Toronto Center
12:02AM 44.1667 -80.5000 104° East 510 587 31,000  Level Toronto Center
12:03AM 44.1500 -80.3000 97° East 510 587 31,000  Level Toronto Center
12:04AM 44.1333 -80.1167 97° East 500 575 31,000  Level Toronto Center
12:05AM 44.1167 -79.9167 97° East 500 575 31,000  Level Toronto Center
12:06AM 44.0833 -79.7333 104° East 490 564 31,000  Level Toronto Center
12:07AM 44.0667 -79.5167 96° East 500 575 31,000  Level Toronto Center
12:08AM 44.0500 -79.3333 97° East 510 587 31,000  Level Toronto Center
12:09AM 44.0333 -79.1500 97° East 510 587 31,000  Level Toronto Center
12:10AM 44.0000 -78.9667 104° East 500 575 31,000  Level Toronto Center
12:11AM 43.9833 -78.7833 97° East 500 575 31,000  Level Toronto Center
12:12AM 43.9667 -78.5667 96° East 500 575 31,000  Level Toronto Center
12:13AM 43.9333 -78.3833 104° East 500 575 31,000  Level Toronto Center
12:14AM 43.9167 -78.2000 97° East 500 575 31,000  Level Toronto Center
12:15AM 43.8833 -78.0167 104° East 500 575 31,000  Level Toronto Center
12:16AM 43.8667 -77.8333 97° East 490 564 31,000  Level Toronto Center
12:17AM 43.8500 -77.6500 97° East 490 564 31,000  Level Toronto Center
12:18AM 43.8333 -77.4667 97° East 490 564 31,000  Level Toronto Center
12:19AM 43.7833 -77.2500 108° East 490 564 31,000  Level Toronto Center
12:20AM 43.7667 -77.0667 97° East 480 552 31,000  Level Toronto Center
12:21AM 43.7500 -76.9167 99° East 500 575 31,000  Level Toronto Center
12:22AM 43.7333 -76.7333 97° East 490 564 31,000  Level Toronto Center
12:23AM 43.6500 -76.5500 122° Southeast 470 541 31,000  Level Toronto Center
12:24AM 43.6000 -76.3833 112° Southeast 480 552 31,000  Level Toronto Center
12:25AM 43.5333 -76.2333 121° Southeast 480 552 31,000  Level Toronto Center
12:26AM 43.4667 -76.0667 119° Southeast 480 552 31,000  Level Toronto Center
12:27AM 43.4000 -75.9000 119° Southeast 480 552 31,000  Level Toronto Center
12:28AM 43.4000 -75.7167 90° East 500 575 31,000  Level Toronto Center
12:29AM 43.3833 -75.5000 96° East 510 587 31,000  Level Toronto Center
12:30AM 43.3833 -75.3167 90° East 510 587 31,000  Level Toronto Center
12:31AM 43.3833 -75.1167 90° East 500 575 31,000  Level Toronto Center
12:32AM 43.3833 -74.9333 90° East 500 575 31,000  Level Toronto Center
12:33AM 43.3833 -74.7500 90° East 490 564 31,000  Level Toronto Center
12:34AM 43.4000 -74.5667 83° East 500 575 31,000  Level Toronto Center
12:35AM 43.3833 -74.3833 97° East 500 575 31,000  Level Toronto Center
12:36AM 43.4000 -74.1667 84° East 510 587 31,000  Level Toronto Center
12:38AM 43.4242 -73.9467 81° East 494 568 31,000  Level Boston Center
12:39AM 43.4286 -73.7522 88° East 494 568 31,000  Level Boston Center
12:40AM 43.4328 -73.5667 88° East 494 568 31,000  Level Boston Center
12:41AM 43.4364 -73.3750 88° East 494 568 31,000  Level Boston Center
12:42AM 43.4419 -73.1864 88° East 494 568 31,000 -180 Level Boston Center
12:43AM 43.4431 -73.0350 89° East 494 568 30,700 -1,260 Descending Boston Center
12:44AM 43.4500 -72.8292 87° East 494 568 28,500 -2,100 Descending Boston Center
12:45AM 43.4528 -72.6489 89° East 487 560 26,500 -2,040 Descending Boston Center
12:46AM 43.4550 -72.4717 89° East 472 543 24,500 -1,920 Descending Boston Center
12:47AM 43.4589 -72.3000 88° East 457 526 22,700 -1,800 Descending Boston Center
12:48AM 43.4586 -72.1369 90° East 435 501 21,000 -1,740 Descending Boston Center
12:49AM 43.4603 -71.9797 89° East 423 487 19,300 -1,980 Descending Boston Center
12:50AM 43.4614 -71.7794 89° East 406 467 16,700 -1,920 Descending Boston Center
12:51AM 43.4625 -71.6306 89° East 396 456 15,100 -1,740 Descending Boston Center
12:52AM 43.4614 -71.4819 91° East 386 444 13,300 -1,740 Descending Boston Center
12:53AM 43.4642 -71.3389 88° East 381 438 11,700 -1,200 Descending Boston Center
12:54AM 43.4650 -71.1986 89° East 376 433 11,000 -840 Descending Boston Center
12:55AM 43.4842 -71.0722 78° East 343 395 10,100 -1,380 Descending Boston Center
12:56AM 43.5122 -70.9658 70° East 307 353 8,300 -1,980 Descending Boston Center
12:57AM 43.5378 -70.8647 71° East 285 328 6,200 -1,740 Descending Boston Center
12:58AM 43.5658 -70.7753 67° East 285 328 4,900 -1,500 Descending Boston Center
12:59AM 43.5997 -70.6711 66° East 275 316 3,300 -1,320 Descending Boston Center
01:00AM 43.6317 -70.5928 61° Northeast 270 311 2,300 -540 Descending Boston Center
01:01AM 43.6617 -70.5086 64° Northeast 228 262 2,300 -300 Level Boston Center
01:02AM 43.6542 -70.4400 99° East 193 222 1,700 -780 Descending Boston Center
01:03AM 43.6489 -70.3742 96° East 174 200 800 -780 Descending Boston Center
01:04AM 43.6458 -70.3169 94° East 150 173 200 -360 Descending Boston Center
01:05AM 43.6406 -70.2653 98° East 150 173 100 -120 Descending Boston Center